메인 페이지
METAR-TAF:

METAR-TAF

공항 :

모로니, 코모로

위도: 11-32S, 경도: 043-16E, 고도: 29m

현재 날씨관측

예보는 36분 전, 09:00시(UTC)에 발표되었습니다.
북북서11kt
온도 31°C
습도 75%
기압 1009 hPa
시정 10km 이상
고도 2400ft 상공 구름 보통

METAR: FMCH 180900Z 33011KT 9999 SCT024 31/26 Q1009 NOSIG

시각: 12:36 (09:36 UTC)

예보

예보는 4 시간 36분 전, 05:00시(UTC)에 발표되었습니다.
예보 대상 시간: 18일 06시부터 19일 12시까지 (UTC)
북북서10kt
시정 10km 이상
고도 2000ft 상공 구름 조금
확률 30% :
일시적
18일 10시부터 18일 16시까지 (UTC)
시정: 4000m
고도 2000ft 상공 구름 조금, 적란운.
고도 2500ft 상공 구름 많음
소나기
전환 중
18일 16시부터 18일 18시까지 (UTC)
북동4kt
전환 중
19일 04시부터 19일 07시까지 (UTC)
북북서15kt, 순간 최대 풍속 25kt

TAF: FMCH 180500Z 1806/1912 34010KT 9999 FEW020 PROB30 TEMPO 1810/1816 4000 SHRA FEW020CB BKN025 BECMG 1816/1818 04004KT BECMG 1904/1907 34015G25KT

4,000개 이상의 공항 관측 자료 및 예보 (METAR 및 TAF 보고).

지도상에서 검색 가능한 기상관측소가 노란 점과 빨간 점으로 표시되어 있습니다.

기상관측소 명을 보려면 표시 위로 마우스를 이동하세요.

날씨 관측과 예보를 보려면 클릭하세요.

지도 변경 : 확대하려면 엑스 표시가 있는 녹색 버튼, 축소하려면 빼기 표시가 있는 녹색 버튼, 다음 페이지의 지도를 보려면 녹색 화살표를 클릭하세요.


METAR-TAF: